createdAt,value
2022-10-02T00:01:20.297Z,28.90
2022-10-02T00:03:51.089Z,32.43
2022-10-02T00:06:23.223Z,29.70
2022-10-02T00:08:55.083Z,26.27
2022-10-02T00:11:26.062Z,28.37
2022-10-02T00:13:59.215Z,32.20
2022-10-02T00:16:34.206Z,36.43
2022-10-02T00:19:04.089Z,27.60
2022-10-02T00:21:49.857Z,34.77
2022-10-02T00:24:23.755Z,36.93
2022-10-02T00:26:58.275Z,22.37
2022-10-02T00:29:41.236Z,26.80
2022-10-02T00:32:18.850Z,25.53
2022-10-02T00:35:01.294Z,30.00
2022-10-02T00:37:38.318Z,41.23
2022-10-02T00:40:30.275Z,40.13
2022-10-02T00:43:11.297Z,41.90
2022-10-02T00:46:30.652Z,33.40
2022-10-02T00:49:12.523Z,25.47
2022-10-02T00:52:02.930Z,34.40
2022-10-02T00:54:53.886Z,29.83
2022-10-02T00:57:32.754Z,28.03
2022-10-02T01:00:07.429Z,35.63
2022-10-02T01:02:52.374Z,39.80
2022-10-02T01:05:22.721Z,34.10
2022-10-02T01:07:54.234Z,38.43
2022-10-02T01:10:25.681Z,37.70
2022-10-02T01:12:55.114Z,29.13
2022-10-02T01:15:28.637Z,37.50
2022-10-02T01:17:57.901Z,40.70
2022-10-02T01:20:36.711Z,43.23
2022-10-02T01:23:16.234Z,41.07
2022-10-02T01:25:49.363Z,37.87
2022-10-02T01:28:18.280Z,37.40
2022-10-02T01:30:55.580Z,44.23
2022-10-02T01:33:24.586Z,31.33
2022-10-02T01:35:53.876Z,33.30
2022-10-02T01:38:24.760Z,39.17
2022-10-02T01:40:57.434Z,40.03
2022-10-02T01:43:30.166Z,45.40
2022-10-02T01:46:09.162Z,40.07
2022-10-02T01:48:46.608Z,33.30
2022-10-02T01:51:27.317Z,39.40
2022-10-02T01:54:05.405Z,34.87
2022-10-02T01:56:45.012Z,47.37
2022-10-02T01:59:26.363Z,25.17
2022-10-02T02:02:09.925Z,43.07
2022-10-02T02:04:44.852Z,45.30
2022-10-02T02:07:19.749Z,31.77
2022-10-02T02:09:59.638Z,39.57
2022-10-02T02:12:39.890Z,34.47
2022-10-02T02:15:12.839Z,39.43
2022-10-02T02:17:50.154Z,30.17
2022-10-02T02:20:24.118Z,42.60
2022-10-02T02:22:55.264Z,35.83
2022-10-02T02:25:28.339Z,37.30
2022-10-02T02:28:05.302Z,47.23
2022-10-02T02:30:39.286Z,44.13
2022-10-02T02:33:13.536Z,36.83
2022-10-02T02:35:45.268Z,41.57
2022-10-02T02:38:19.424Z,41.70
2022-10-02T02:40:48.480Z,37.97
2022-10-02T02:43:24.243Z,33.63
2022-10-02T02:45:57.394Z,44.63
2022-10-02T02:48:29.531Z,44.40
2022-10-02T02:51:04.777Z,40.17
2022-10-02T02:53:39.437Z,36.67
2022-10-02T02:56:13.449Z,41.57
2022-10-02T02:58:48.794Z,41.90
2022-10-02T03:01:17.355Z,42.23
2022-10-02T03:03:46.176Z,49.87
2022-10-02T03:06:28.352Z,35.80
2022-10-02T03:08:56.874Z,39.23
2022-10-02T03:11:34.587Z,45.47
2022-10-02T03:14:16.898Z,37.47
2022-10-02T03:16:56.423Z,40.07
2022-10-02T03:19:42.213Z,48.17
2022-10-02T03:22:16.653Z,49.97
2022-10-02T03:24:52.036Z,34.70
2022-10-02T03:27:30.295Z,37.50
2022-10-02T03:30:06.515Z,33.00
2022-10-02T03:32:37.304Z,27.47
2022-10-02T03:35:10.614Z,33.23
2022-10-02T03:37:40.838Z,28.13
2022-10-02T03:40:10.105Z,28.73
2022-10-02T03:42:38.771Z,20.93
2022-10-02T03:45:09.986Z,28.90
2022-10-02T03:47:38.518Z,24.10
2022-10-02T03:50:07.952Z,16.87
2022-10-02T03:52:37.176Z,12.63
2022-10-02T03:55:21.901Z,21.23
2022-10-02T03:57:50.800Z,16.97
2022-10-02T04:00:26.431Z,24.03
2022-10-02T04:02:59.174Z,21.17
2022-10-02T04:05:31.803Z,18.70
2022-10-02T04:08:13.875Z,12.27
2022-10-02T04:10:50.397Z,26.53
2022-10-02T04:13:24.742Z,16.87
2022-10-02T04:16:02.716Z,22.93
2022-10-02T04:18:37.908Z,23.93
2022-10-02T04:21:14.500Z,23.47
2022-10-02T04:23:48.691Z,27.80
2022-10-02T04:26:21.339Z,23.37
2022-10-02T04:28:55.443Z,31.50
2022-10-02T04:31:27.520Z,18.33
2022-10-02T04:34:00.392Z,23.10
2022-10-02T04:36:41.087Z,26.27
2022-10-02T04:39:26.282Z,25.23
2022-10-02T04:42:06.974Z,22.70
2022-10-02T04:44:54.454Z,15.63
2022-10-02T04:47:48.642Z,19.83
2022-10-02T04:50:34.240Z,15.50
2022-10-02T04:53:33.958Z,17.30
2022-10-02T04:56:22.834Z,15.17
2022-10-02T04:59:07.265Z,20.60
2022-10-02T05:01:51.846Z,18.83
2022-10-02T05:04:50.758Z,18.23
2022-10-02T05:07:39.480Z,19.40
2022-10-02T05:10:31.765Z,20.93
2022-10-02T05:13:11.414Z,20.93
2022-10-02T05:16:04.763Z,27.33
2022-10-02T05:19:01.782Z,26.33
2022-10-02T05:22:01.402Z,23.47
2022-10-02T05:24:47.436Z,23.87
2022-10-02T05:27:51.512Z,24.27
2022-10-02T05:30:20.869Z,29.70
2022-10-02T05:33:28.418Z,28.03
2022-10-02T05:36:19.824Z,33.43
2022-10-02T05:39:03.987Z,29.17
2022-10-02T05:41:42.452Z,30.63
2022-10-02T05:44:16.503Z,30.03
2022-10-02T05:46:51.257Z,26.07
2022-10-02T05:49:22.744Z,37.50
2022-10-02T05:51:59.709Z,37.23
2022-10-02T05:54:50.705Z,36.73
2022-10-02T05:57:27.561Z,41.87
2022-10-02T06:00:06.643Z,27.03
2022-10-02T06:02:48.519Z,28.23
2022-10-02T06:05:23.236Z,30.87
2022-10-02T06:07:57.911Z,34.83
2022-10-02T06:10:32.258Z,30.87
2022-10-02T06:13:06.065Z,30.80
2022-10-02T06:15:41.093Z,33.27
2022-10-02T06:18:14.497Z,42.53
2022-10-02T06:20:47.630Z,58.30
2022-10-02T06:23:22.243Z,23.73
2022-10-02T06:25:56.282Z,30.57
2022-10-02T06:28:30.542Z,29.93
2022-10-02T06:31:17.683Z,21.70
2022-10-02T06:33:46.321Z,21.50
2022-10-02T06:36:33.157Z,21.17
2022-10-02T06:39:15.019Z,17.93
2022-10-02T06:41:55.211Z,22.17
2022-10-02T06:44:32.133Z,25.30
2022-10-02T06:47:21.484Z,29.40
2022-10-02T06:50:08.334Z,34.30
2022-10-02T06:52:48.183Z,41.27
2022-10-02T06:55:36.715Z,32.47
2022-10-02T06:58:26.516Z,38.83
2022-10-02T07:01:12.812Z,37.77
2022-10-02T07:03:51.459Z,42.03
2022-10-02T07:06:31.071Z,43.13
2022-10-02T07:09:36.856Z,38.80
2022-10-02T07:12:16.983Z,38.97
2022-10-02T07:15:04.270Z,40.73
2022-10-02T07:17:47.258Z,43.90
2022-10-02T07:20:29.724Z,43.87
2022-10-02T07:23:16.643Z,34.47
2022-10-02T07:26:08.812Z,35.23
2022-10-02T07:28:43.643Z,36.93
2022-10-02T07:31:23.294Z,35.43
2022-10-02T07:34:13.199Z,35.27
2022-10-02T07:36:52.494Z,37.00
2022-10-02T07:39:36.891Z,41.50
2022-10-02T07:42:28.490Z,31.83
2022-10-02T07:45:28.689Z,27.23
2022-10-02T07:48:29.816Z,36.87
2022-10-02T07:51:04.639Z,27.07
2022-10-02T07:53:40.560Z,29.17
2022-10-02T07:56:20.017Z,28.60
2022-10-02T07:58:54.607Z,26.73
2022-10-02T08:01:27.334Z,40.77
2022-10-02T08:04:02.305Z,34.40
2022-10-02T08:06:33.409Z,23.80
2022-10-02T08:09:09.288Z,25.83
2022-10-02T08:11:49.175Z,23.30
2022-10-02T08:14:26.943Z,30.03
2022-10-02T08:17:02.047Z,24.90
2022-10-02T08:19:39.403Z,22.10
2022-10-02T08:22:16.383Z,20.27
2022-10-02T08:24:49.236Z,25.07
2022-10-02T08:27:22.479Z,28.10
2022-10-02T08:29:56.122Z,21.37
2022-10-02T08:32:33.932Z,20.03
2022-10-02T08:35:12.521Z,16.37
2022-10-02T08:37:52.614Z,15.00
2022-10-02T08:40:49.913Z,17.57
2022-10-02T08:44:07.292Z,17.73
2022-10-02T08:47:10.757Z,20.93
2022-10-02T08:50:07.888Z,20.37
2022-10-02T08:53:09.547Z,16.53
2022-10-02T08:56:07.839Z,18.93
2022-10-02T08:59:10.287Z,20.57
2022-10-02T09:02:12.021Z,18.63
2022-10-02T09:05:26.041Z,18.17
2022-10-02T09:08:41.084Z,17.50
2022-10-02T09:11:45.232Z,21.20
2022-10-02T09:14:37.710Z,20.57
2022-10-02T09:17:42.198Z,20.87
2022-10-02T09:20:49.228Z,14.83
2022-10-02T09:23:49.939Z,21.30
2022-10-02T09:26:34.675Z,15.83
2022-10-02T09:29:34.647Z,20.50
2022-10-02T09:32:46.381Z,18.00
2022-10-02T09:35:43.137Z,17.00
2022-10-02T09:38:36.822Z,14.03
2022-10-02T09:41:47.059Z,15.90
2022-10-02T09:44:44.941Z,15.67
2022-10-02T09:48:05.077Z,15.47
2022-10-02T09:51:31.720Z,15.40
2022-10-02T09:54:26.580Z,17.97
2022-10-02T09:57:31.852Z,19.27
2022-10-02T10:00:34.844Z,16.97
2022-10-02T10:03:30.608Z,19.87
2022-10-02T10:06:36.694Z,15.27
2022-10-02T10:09:43.575Z,18.77
2022-10-02T10:13:00.421Z,17.03
2022-10-02T10:16:19.303Z,12.90
2022-10-02T10:19:29.549Z,14.90
2022-10-02T10:22:19.284Z,17.37
2022-10-02T10:25:23.004Z,15.80
2022-10-02T10:28:26.813Z,15.77
2022-10-02T10:31:29.373Z,20.27
2022-10-02T10:34:34.644Z,20.13
2022-10-02T10:37:24.241Z,18.03
2022-10-02T10:40:19.035Z,21.17
2022-10-02T10:43:20.284Z,25.60
2022-10-02T10:46:17.461Z,19.40
2022-10-02T10:49:13.465Z,17.53
2022-10-02T10:51:49.857Z,14.57
2022-10-02T10:54:50.514Z,12.87
2022-10-02T10:57:27.801Z,15.50
2022-10-02T11:00:17.300Z,16.20
2022-10-02T11:03:29.429Z,11.83
2022-10-02T11:06:45.244Z,14.73
2022-10-02T11:09:47.910Z,12.73
2022-10-02T11:12:41.984Z,14.37
2022-10-02T11:15:23.989Z,13.03
2022-10-02T11:18:22.509Z,15.97
2022-10-02T11:21:17.321Z,14.47
2022-10-02T11:24:07.686Z,13.93
2022-10-02T11:26:48.010Z,13.57
2022-10-02T11:29:43.913Z,15.37
2022-10-02T11:32:39.806Z,12.73
2022-10-02T11:35:34.017Z,14.37
2022-10-02T11:38:25.057Z,16.63
2022-10-02T11:41:10.050Z,13.73
2022-10-02T11:44:03.017Z,16.40
2022-10-02T11:47:03.378Z,12.37
2022-10-02T11:50:06.064Z,14.10
2022-10-02T11:52:53.650Z,11.57
2022-10-02T11:55:41.184Z,14.13
2022-10-02T11:58:18.162Z,14.13
2022-10-02T12:01:16.998Z,13.13
2022-10-02T12:03:59.265Z,13.70
2022-10-02T12:06:42.971Z,9.90
2022-10-02T12:09:21.897Z,12.43
2022-10-02T12:12:02.210Z,16.20
2022-10-02T12:14:40.269Z,20.47
2022-10-02T12:17:23.088Z,15.13
2022-10-02T12:20:20.178Z,13.43
2022-10-02T12:23:16.313Z,15.03
2022-10-02T12:26:10.717Z,12.47
2022-10-02T12:28:50.889Z,17.67
2022-10-02T12:31:33.504Z,10.00
2022-10-02T12:34:09.806Z,13.87
2022-10-02T12:36:56.647Z,15.47
2022-10-02T12:39:41.882Z,11.60
2022-10-02T12:42:32.939Z,12.33
2022-10-02T12:45:25.203Z,11.67
2022-10-02T12:48:11.373Z,12.60
2022-10-02T12:50:55.143Z,10.13
2022-10-02T12:53:59.323Z,13.53
2022-10-02T12:56:53.686Z,14.43
2022-10-02T12:59:30.489Z,12.43
2022-10-02T13:02:59.143Z,19.80
2022-10-02T13:05:51.900Z,17.53
2022-10-02T13:08:46.989Z,12.60
2022-10-02T13:11:27.771Z,14.50
2022-10-02T13:14:20.307Z,13.50
2022-10-02T13:17:10.261Z,13.70
2022-10-02T13:19:49.865Z,13.70
2022-10-02T13:22:31.434Z,11.00
2022-10-02T13:25:23.880Z,13.60
2022-10-02T13:28:04.854Z,9.70
2022-10-02T13:30:39.355Z,13.03
2022-10-02T13:33:22.171Z,12.33
2022-10-02T13:36:16.476Z,19.10
2022-10-02T13:39:08.695Z,15.50
2022-10-02T13:41:51.109Z,16.23
2022-10-02T13:44:34.028Z,15.37
2022-10-02T13:47:23.353Z,14.70
2022-10-02T13:50:17.605Z,17.27
2022-10-02T13:52:58.662Z,19.03
2022-10-02T13:55:31.431Z,19.27
2022-10-02T13:58:32.218Z,22.70
2022-10-02T14:01:13.138Z,17.30
2022-10-02T14:04:03.850Z,19.60
2022-10-02T14:06:38.858Z,15.87
2022-10-02T14:09:25.186Z,17.17
2022-10-02T14:12:24.115Z,15.00
2022-10-02T14:15:20.409Z,15.13
2022-10-02T14:18:17.163Z,12.87
2022-10-02T14:20:54.383Z,13.73
2022-10-02T14:23:51.927Z,12.07
2022-10-02T14:26:33.910Z,20.07
2022-10-02T14:29:36.432Z,20.10
2022-10-02T14:32:19.314Z,14.93
2022-10-02T14:35:09.695Z,13.20
2022-10-02T14:38:15.714Z,15.73
2022-10-02T14:40:54.573Z,12.30
2022-10-02T14:43:54.679Z,18.03
2022-10-02T14:46:38.223Z,15.53
2022-10-02T14:49:36.852Z,14.17
2022-10-02T14:52:39.917Z,11.97
2022-10-02T14:55:21.149Z,15.97
2022-10-02T14:58:22.707Z,9.80
2022-10-02T15:01:05.083Z,15.23
2022-10-02T15:03:50.473Z,15.57
2022-10-02T15:06:31.658Z,10.40
2022-10-02T15:09:04.222Z,13.67
2022-10-02T15:11:55.359Z,14.10
2022-10-02T15:14:33.219Z,11.23
2022-10-02T15:17:21.729Z,10.70
2022-10-02T15:19:57.086Z,16.50
2022-10-02T15:22:30.167Z,15.47
2022-10-02T15:25:00.954Z,15.07
2022-10-02T15:27:42.224Z,11.13
2022-10-02T15:30:22.113Z,10.13
2022-10-02T15:33:15.441Z,8.80
2022-10-02T15:36:11.330Z,12.97
2022-10-02T15:39:23.724Z,12.10
2022-10-02T15:42:05.005Z,11.30
2022-10-02T15:45:13.732Z,9.60
2022-10-02T15:47:59.206Z,10.70
2022-10-02T15:50:40.940Z,12.60
2022-10-02T15:53:43.475Z,8.90
2022-10-02T15:56:44.020Z,15.33
2022-10-02T15:59:31.997Z,9.00
2022-10-02T16:02:18.873Z,12.67
2022-10-02T16:05:04.482Z,11.97
2022-10-02T16:08:00.684Z,12.60
2022-10-02T16:10:38.766Z,8.60
2022-10-02T16:13:29.884Z,14.73
2022-10-02T16:16:08.214Z,10.43
2022-10-02T16:18:55.648Z,19.23
2022-10-02T16:21:39.207Z,12.90
2022-10-02T16:24:31.205Z,8.97
2022-10-02T16:27:32.757Z,10.83
2022-10-02T16:30:13.622Z,15.07
2022-10-02T16:32:58.881Z,10.63
2022-10-02T16:36:00.707Z,9.83
2022-10-02T16:38:42.248Z,8.67
2022-10-02T16:41:36.046Z,20.53
2022-10-02T16:44:24.669Z,13.57
2022-10-02T16:46:56.997Z,8.00
2022-10-02T16:49:33.283Z,14.23
2022-10-02T16:52:11.911Z,11.77
2022-10-02T16:54:47.367Z,14.40
2022-10-02T16:57:25.364Z,10.93
2022-10-02T17:00:04.045Z,12.80
2022-10-02T17:02:43.652Z,13.47
2022-10-02T17:05:26.222Z,13.50
2022-10-02T17:08:02.318Z,11.23
2022-10-02T17:10:39.564Z,12.17
2022-10-02T17:13:29.239Z,10.83
2022-10-02T17:16:07.126Z,9.80
2022-10-02T17:18:42.884Z,10.83
2022-10-02T17:21:17.128Z,13.63
2022-10-02T17:23:59.784Z,19.40
2022-10-02T17:26:36.898Z,20.70
2022-10-02T17:29:14.433Z,14.63
2022-10-02T17:31:52.265Z,13.87
2022-10-02T17:34:24.335Z,20.70
2022-10-02T17:37:04.015Z,16.47
2022-10-02T17:39:52.109Z,9.70
2022-10-02T17:42:34.105Z,14.53
2022-10-02T17:45:19.783Z,14.50
2022-10-02T17:47:58.063Z,15.40
2022-10-02T17:50:48.803Z,18.47
2022-10-02T17:53:49.603Z,12.60
2022-10-02T17:56:33.949Z,13.93
2022-10-02T17:59:21.283Z,7.90
2022-10-02T18:02:02.483Z,13.03
2022-10-02T18:04:46.028Z,17.07
2022-10-02T18:07:32.811Z,14.23
2022-10-02T18:10:13.378Z,13.27
2022-10-02T18:13:06.641Z,13.87
2022-10-02T18:15:51.432Z,10.17
2022-10-02T18:18:27.220Z,19.57
2022-10-02T18:21:09.377Z,17.53
2022-10-02T18:24:07.446Z,16.67
2022-10-02T18:26:47.712Z,13.43
2022-10-02T18:29:33.614Z,13.57
2022-10-02T18:32:21.997Z,16.23
2022-10-02T18:35:15.187Z,16.47
2022-10-02T18:37:57.494Z,12.17
2022-10-02T18:40:29.998Z,16.43
2022-10-02T18:43:21.291Z,19.00
2022-10-02T18:46:02.210Z,15.37
2022-10-02T18:48:45.165Z,15.87
2022-10-02T18:51:32.280Z,17.00
2022-10-02T18:54:17.970Z,18.33
2022-10-02T18:56:59.864Z,11.67
2022-10-02T18:59:40.751Z,18.73
2022-10-02T19:02:28.561Z,17.57
2022-10-02T19:05:21.926Z,23.70
2022-10-02T19:07:57.393Z,16.53
2022-10-02T19:10:30.027Z,13.90
2022-10-02T19:13:02.410Z,14.90
2022-10-02T19:15:33.188Z,23.73
2022-10-02T19:18:04.257Z,19.70
2022-10-02T19:20:41.915Z,17.97
2022-10-02T19:23:38.069Z,17.80
2022-10-02T19:26:51.144Z,19.70
2022-10-02T19:29:29.082Z,20.10
2022-10-02T19:32:02.834Z,19.03
2022-10-02T19:34:33.256Z,16.37
2022-10-02T19:37:07.453Z,15.40
2022-10-02T19:39:38.350Z,10.03
2022-10-02T19:42:13.369Z,14.27
2022-10-02T19:44:48.874Z,21.73
2022-10-02T19:47:27.368Z,19.23
2022-10-02T19:49:57.909Z,12.80
2022-10-02T19:52:37.183Z,16.20
2022-10-02T19:55:19.110Z,19.53
2022-10-02T19:57:54.111Z,13.17
2022-10-02T20:00:22.723Z,21.97
2022-10-02T20:02:55.847Z,14.17
2022-10-02T20:05:27.181Z,21.00
2022-10-02T20:08:04.217Z,12.27
2022-10-02T20:10:39.318Z,10.87
2022-10-02T20:13:17.648Z,12.80
2022-10-02T20:16:07.553Z,12.20
2022-10-02T20:18:37.270Z,14.03
2022-10-02T20:21:08.907Z,21.57
2022-10-02T20:23:41.850Z,15.27
2022-10-02T20:26:15.341Z,20.57
2022-10-02T20:28:52.153Z,21.03
2022-10-02T20:31:26.840Z,18.10
2022-10-02T20:33:59.014Z,16.70
2022-10-02T20:36:31.387Z,15.67
2022-10-02T20:39:03.884Z,12.30
2022-10-02T20:41:39.966Z,13.23
2022-10-02T20:44:09.809Z,9.60
2022-10-02T20:47:26.516Z,21.10
2022-10-02T20:50:18.164Z,19.07
2022-10-02T20:53:31.348Z,19.77
2022-10-02T20:56:05.509Z,13.43
2022-10-02T20:58:56.605Z,12.43
2022-10-02T21:01:37.486Z,11.37
2022-10-02T21:04:47.015Z,19.03
2022-10-02T21:07:40.583Z,17.03
2022-10-02T21:10:41.135Z,11.73
2022-10-02T21:13:54.550Z,20.67
2022-10-02T21:16:43.249Z,14.07
2022-10-02T21:19:48.418Z,16.73
2022-10-02T21:22:57.224Z,20.03
2022-10-02T21:26:10.744Z,8.53
2022-10-02T21:29:03.309Z,28.00
2022-10-02T21:31:47.653Z,15.33
2022-10-02T21:34:31.988Z,14.67
2022-10-02T21:37:09.627Z,15.97
2022-10-02T21:40:14.863Z,13.47
2022-10-02T21:43:08.201Z,14.10
2022-10-02T21:46:23.106Z,13.57
2022-10-02T21:49:24.172Z,18.70
2022-10-02T21:52:43.785Z,17.73
2022-10-02T21:55:53.789Z,15.67
2022-10-02T21:58:50.947Z,19.07
2022-10-02T22:02:08.577Z,20.27
2022-10-02T22:05:34.794Z,25.90
2022-10-02T22:08:14.389Z,20.10
2022-10-02T22:10:55.436Z,9.90
2022-10-02T22:13:31.182Z,15.80
2022-10-02T22:16:18.780Z,14.70
2022-10-02T22:18:53.083Z,16.43
2022-10-02T22:21:36.553Z,14.00
2022-10-02T22:24:25.973Z,20.40
2022-10-02T22:27:23.394Z,17.67
2022-10-02T22:29:56.239Z,21.53
2022-10-02T22:33:04.998Z,13.97
2022-10-02T22:35:47.398Z,16.63
2022-10-02T22:38:21.503Z,11.23
2022-10-02T22:40:53.653Z,21.37
2022-10-02T22:43:30.704Z,16.00
2022-10-02T22:46:04.688Z,11.13
2022-10-02T22:48:39.217Z,16.43
2022-10-02T22:51:16.480Z,18.07
2022-10-02T22:53:52.428Z,15.53
2022-10-02T22:56:29.923Z,23.93
2022-10-02T22:59:12.360Z,15.20
2022-10-02T23:01:47.812Z,18.50
2022-10-02T23:04:28.972Z,15.80
2022-10-02T23:07:02.624Z,16.13
2022-10-02T23:09:41.049Z,20.13
2022-10-02T23:12:16.345Z,8.53
2022-10-02T23:15:01.878Z,8.67
2022-10-02T23:17:38.293Z,23.07
2022-10-02T23:20:13.257Z,17.97
2022-10-02T23:22:49.624Z,18.33
2022-10-02T23:25:27.474Z,16.10
2022-10-02T23:28:01.583Z,17.63
2022-10-02T23:30:37.093Z,11.93
2022-10-02T23:33:15.038Z,12.80
2022-10-02T23:35:50.036Z,15.20
2022-10-02T23:38:23.985Z,26.87
2022-10-02T23:41:24.020Z,14.07
2022-10-02T23:44:05.683Z,17.67
2022-10-02T23:46:41.366Z,19.33
2022-10-02T23:49:12.933Z,15.27
2022-10-02T23:51:56.202Z,19.10
2022-10-02T23:54:40.382Z,18.73
2022-10-02T23:57:21.878Z,25.30
